METAR AND TAF INFORMATION
METAR FOR VLVT
ADDS - METARS form results

(1945 UTC 16 October 2019)
Data provider http://aviationweather.gov/metar/data/
 
Forecast for: VLVT (VIENTIANE/WATTAY, LA)
Text: TAF VLVT 161700Z 1618/1718 32006KT 9999 SCT020 SCT050
Forecast period: 1800 UTC 16 October 2019 to 1800 UTC 17 October 2019
Forecast type: FROM: standard forecast or significant change
Winds: from the NW (320 degrees) at 7 MPH (6 knots; 3.1 m/s)
Visibility: 6 or more miles 10+ km)
Ceiling: at least 12,000 feet AGL
Clouds: scattered clouds at 2000 feet AGL
scattered clouds at 5000 feet AGL
Weather: no significant weather forecast for this period

 AIRPORT MAP

 RUNWAY INFORMATION
Runway 13 Runway length 9843 ft Runway width 148 ft
Runway elevation 563 ft Runway displaced threshold 0 ft Runway heading 135
Runway 31 Runway length 9843 ft Runway width 148 ft
Runway elevation 563 ft Runway displaced threshold 0 ft Runway heading 315

 AIRPORT FREQUENCIES
Type APP Name VIENTIANE Frequency 119.7 MHZ
Type TWR Name VIENTIANE Frequency 118.1 MHZ

 AIRPORT NEAR NAVIGATION AIDS
Type NDB Name Vientiane Frequency 205 KHZ
Type NDB Name Thangone Frequency 405 KHZ
Type VOR-DME Name Vientiane Frequency 117500 KHZ
Type NDB Name Wattay Frequency 389 KHZ



Powered by Virtual Airlines Manager [v2.6.2]